sensor_id;sensor_type;location;lat;lon;timestamp;P1;durP1;ratioP1;P2;durP2;ratioP2
3369;SDS011;42042;51.948;7.628;2023-09-12T00:01:03;28.23;;;25.07;;
3369;SDS011;42042;51.948;7.628;2023-09-12T00:03:31;32.90;;;25.53;;
3369;SDS011;42042;51.948;7.628;2023-09-12T00:05:59;38.27;;;27.63;;
3369;SDS011;42042;51.948;7.628;2023-09-12T00:08:28;34.80;;;26.07;;
3369;SDS011;42042;51.948;7.628;2023-09-12T00:10:59;38.60;;;28.23;;
3369;SDS011;42042;51.948;7.628;2023-09-12T00:13:27;37.17;;;26.83;;
3369;SDS011;42042;51.948;7.628;2023-09-12T00:15:54;36.23;;;27.77;;
3369;SDS011;42042;51.948;7.628;2023-09-12T00:18:21;32.17;;;25.30;;
3369;SDS011;42042;51.948;7.628;2023-09-12T00:20:49;37.00;;;25.57;;
3369;SDS011;42042;51.948;7.628;2023-09-12T00:23:17;29.40;;;25.40;;
3369;SDS011;42042;51.948;7.628;2023-09-12T00:25:46;39.20;;;29.33;;
3369;SDS011;42042;51.948;7.628;2023-09-12T00:28:13;42.53;;;31.40;;
3369;SDS011;42042;51.948;7.628;2023-09-12T00:30:40;49.80;;;31.90;;
3369;SDS011;42042;51.948;7.628;2023-09-12T00:33:07;35.43;;;29.20;;
3369;SDS011;42042;51.948;7.628;2023-09-12T00:35:35;47.03;;;31.00;;
3369;SDS011;42042;51.948;7.628;2023-09-12T00:38:02;48.17;;;32.87;;
3369;SDS011;42042;51.948;7.628;2023-09-12T00:40:29;37.10;;;31.37;;
3369;SDS011;42042;51.948;7.628;2023-09-12T00:42:58;41.03;;;30.20;;
3369;SDS011;42042;51.948;7.628;2023-09-12T00:45:25;44.87;;;33.20;;
3369;SDS011;42042;51.948;7.628;2023-09-12T00:47:52;44.80;;;31.23;;
3369;SDS011;42042;51.948;7.628;2023-09-12T00:50:20;38.80;;;32.33;;
3369;SDS011;42042;51.948;7.628;2023-09-12T00:52:48;39.93;;;32.60;;
3369;SDS011;42042;51.948;7.628;2023-09-12T00:55:15;42.20;;;30.30;;
3369;SDS011;42042;51.948;7.628;2023-09-12T00:57:43;42.83;;;33.03;;
3369;SDS011;42042;51.948;7.628;2023-09-12T01:00:12;47.60;;;32.93;;
3369;SDS011;42042;51.948;7.628;2023-09-12T01:02:40;47.63;;;33.90;;
3369;SDS011;42042;51.948;7.628;2023-09-12T01:05:08;46.30;;;35.50;;
3369;SDS011;42042;51.948;7.628;2023-09-12T01:07:36;41.30;;;31.97;;
3369;SDS011;42042;51.948;7.628;2023-09-12T01:10:03;43.97;;;34.27;;
3369;SDS011;42042;51.948;7.628;2023-09-12T01:12:31;47.47;;;33.67;;
3369;SDS011;42042;51.948;7.628;2023-09-12T01:14:58;41.20;;;32.83;;
3369;SDS011;42042;51.948;7.628;2023-09-12T01:17:27;49.90;;;34.67;;
3369;SDS011;42042;51.948;7.628;2023-09-12T01:19:54;44.67;;;34.60;;
3369;SDS011;42042;51.948;7.628;2023-09-12T01:22:25;43.67;;;35.63;;
3369;SDS011;42042;51.948;7.628;2023-09-12T01:27:41;44.90;;;33.80;;
3369;SDS011;42042;51.948;7.628;2023-09-12T01:30:08;44.10;;;32.13;;
3369;SDS011;42042;51.948;7.628;2023-09-12T01:32:36;57.07;;;39.60;;
3369;SDS011;42042;51.948;7.628;2023-09-12T01:35:04;54.33;;;37.43;;
3369;SDS011;42042;51.948;7.628;2023-09-12T01:37:33;50.57;;;38.93;;
3369;SDS011;42042;51.948;7.628;2023-09-12T01:40:00;53.97;;;37.27;;
3369;SDS011;42042;51.948;7.628;2023-09-12T01:42:30;45.37;;;32.33;;
3369;SDS011;42042;51.948;7.628;2023-09-12T01:44:59;55.40;;;37.27;;
3369;SDS011;42042;51.948;7.628;2023-09-12T01:47:28;47.93;;;36.00;;
3369;SDS011;42042;51.948;7.628;2023-09-12T01:49:56;41.63;;;34.20;;
3369;SDS011;42042;51.948;7.628;2023-09-12T01:52:24;39.47;;;29.23;;
3369;SDS011;42042;51.948;7.628;2023-09-12T01:54:52;35.83;;;26.33;;
3369;SDS011;42042;51.948;7.628;2023-09-12T01:57:19;41.87;;;29.43;;
3369;SDS011;42042;51.948;7.628;2023-09-12T01:59:47;40.27;;;29.83;;
3369;SDS011;42042;51.948;7.628;2023-09-12T02:02:15;43.23;;;30.90;;
3369;SDS011;42042;51.948;7.628;2023-09-12T02:04:44;39.23;;;29.47;;
3369;SDS011;42042;51.948;7.628;2023-09-12T02:07:13;31.03;;;23.07;;
3369;SDS011;42042;51.948;7.628;2023-09-12T02:09:41;33.27;;;24.43;;
3369;SDS011;42042;51.948;7.628;2023-09-12T02:12:08;30.13;;;20.73;;
3369;SDS011;42042;51.948;7.628;2023-09-12T02:14:35;29.43;;;23.87;;
3369;SDS011;42042;51.948;7.628;2023-09-12T02:17:03;31.00;;;23.63;;
3369;SDS011;42042;51.948;7.628;2023-09-12T02:19:31;31.40;;;24.07;;
3369;SDS011;42042;51.948;7.628;2023-09-12T02:21:58;31.27;;;21.07;;
3369;SDS011;42042;51.948;7.628;2023-09-12T02:24:26;25.07;;;20.30;;
3369;SDS011;42042;51.948;7.628;2023-09-12T02:26:53;24.10;;;19.33;;
3369;SDS011;42042;51.948;7.628;2023-09-12T02:29:20;21.77;;;18.50;;
3369;SDS011;42042;51.948;7.628;2023-09-12T02:31:47;22.17;;;18.00;;
3369;SDS011;42042;51.948;7.628;2023-09-12T02:34:14;20.80;;;17.27;;
3369;SDS011;42042;51.948;7.628;2023-09-12T02:36:43;22.10;;;16.87;;
3369;SDS011;42042;51.948;7.628;2023-09-12T02:39:10;16.10;;;14.43;;
3369;SDS011;42042;51.948;7.628;2023-09-12T02:41:37;24.00;;;17.27;;
3369;SDS011;42042;51.948;7.628;2023-09-12T02:44:04;22.97;;;16.93;;
3369;SDS011;42042;51.948;7.628;2023-09-12T02:46:32;21.60;;;17.10;;
3369;SDS011;42042;51.948;7.628;2023-09-12T02:48:59;19.43;;;16.37;;
3369;SDS011;42042;51.948;7.628;2023-09-12T02:51:26;17.87;;;15.53;;
3369;SDS011;42042;51.948;7.628;2023-09-12T02:53:55;20.97;;;16.73;;
3369;SDS011;42042;51.948;7.628;2023-09-12T02:56:22;19.67;;;17.50;;
3369;SDS011;42042;51.948;7.628;2023-09-12T02:58:49;18.13;;;15.90;;
3369;SDS011;42042;51.948;7.628;2023-09-12T03:01:17;19.43;;;16.53;;
3369;SDS011;42042;51.948;7.628;2023-09-12T03:03:45;28.23;;;15.67;;
3369;SDS011;42042;51.948;7.628;2023-09-12T03:06:12;22.73;;;14.10;;
3369;SDS011;42042;51.948;7.628;2023-09-12T03:08:40;12.43;;;9.40;;
3369;SDS011;42042;51.948;7.628;2023-09-12T03:11:09;16.87;;;10.23;;
3369;SDS011;42042;51.948;7.628;2023-09-12T03:13:36;18.20;;;11.20;;
3369;SDS011;42042;51.948;7.628;2023-09-12T03:16:03;18.13;;;11.87;;
3369;SDS011;42042;51.948;7.628;2023-09-12T03:18:31;15.43;;;12.87;;
3369;SDS011;42042;51.948;7.628;2023-09-12T03:20:58;22.43;;;12.70;;
3369;SDS011;42042;51.948;7.628;2023-09-12T03:23:27;14.50;;;11.80;;
3369;SDS011;42042;51.948;7.628;2023-09-12T03:25:55;17.87;;;12.33;;
3369;SDS011;42042;51.948;7.628;2023-09-12T03:28:23;17.30;;;11.53;;
3369;SDS011;42042;51.948;7.628;2023-09-12T03:30:50;13.80;;;11.40;;
3369;SDS011;42042;51.948;7.628;2023-09-12T03:33:17;17.93;;;11.00;;
3369;SDS011;42042;51.948;7.628;2023-09-12T03:35:45;20.27;;;11.30;;
3369;SDS011;42042;51.948;7.628;2023-09-12T03:38:12;14.47;;;12.20;;
3369;SDS011;42042;51.948;7.628;2023-09-12T03:40:39;14.50;;;12.07;;
3369;SDS011;42042;51.948;7.628;2023-09-12T03:43:06;14.97;;;11.43;;
3369;SDS011;42042;51.948;7.628;2023-09-12T03:45:35;12.87;;;10.10;;
3369;SDS011;42042;51.948;7.628;2023-09-12T03:48:02;16.90;;;10.97;;
3369;SDS011;42042;51.948;7.628;2023-09-12T03:50:30;12.47;;;11.17;;
3369;SDS011;42042;51.948;7.628;2023-09-12T03:52:57;13.00;;;10.80;;
3369;SDS011;42042;51.948;7.628;2023-09-12T03:55:24;13.63;;;10.27;;
3369;SDS011;42042;51.948;7.628;2023-09-12T03:57:51;15.67;;;11.23;;
3369;SDS011;42042;51.948;7.628;2023-09-12T04:00:18;13.57;;;11.07;;
3369;SDS011;42042;51.948;7.628;2023-09-12T04:02:47;14.93;;;12.10;;
3369;SDS011;42042;51.948;7.628;2023-09-12T04:05:14;13.60;;;10.63;;
3369;SDS011;42042;51.948;7.628;2023-09-12T04:07:41;16.67;;;11.77;;
3369;SDS011;42042;51.948;7.628;2023-09-12T04:10:09;13.80;;;11.40;;
3369;SDS011;42042;51.948;7.628;2023-09-12T04:12:36;14.97;;;11.70;;
3369;SDS011;42042;51.948;7.628;2023-09-12T04:15:04;17.53;;;12.50;;
3369;SDS011;42042;51.948;7.628;2023-09-12T04:17:31;12.80;;;11.10;;
3369;SDS011;42042;51.948;7.628;2023-09-12T04:20:00;13.63;;;11.77;;
3369;SDS011;42042;51.948;7.628;2023-09-12T04:22:27;14.30;;;12.10;;
3369;SDS011;42042;51.948;7.628;2023-09-12T04:24:54;16.27;;;13.50;;
3369;SDS011;42042;51.948;7.628;2023-09-12T04:27:21;21.03;;;12.33;;
3369;SDS011;42042;51.948;7.628;2023-09-12T04:29:49;14.10;;;12.60;;
3369;SDS011;42042;51.948;7.628;2023-09-12T04:32:16;15.57;;;13.73;;
3369;SDS011;42042;51.948;7.628;2023-09-12T04:34:48;14.40;;;12.87;;
3369;SDS011;42042;51.948;7.628;2023-09-12T04:37:16;18.30;;;15.53;;
3369;SDS011;42042;51.948;7.628;2023-09-12T04:39:44;17.77;;;13.77;;
3369;SDS011;42042;51.948;7.628;2023-09-12T04:42:11;18.57;;;15.13;;
3369;SDS011;42042;51.948;7.628;2023-09-12T04:44:39;20.80;;;13.93;;
3369;SDS011;42042;51.948;7.628;2023-09-12T04:47:07;18.70;;;14.10;;
3369;SDS011;42042;51.948;7.628;2023-09-12T04:49:34;18.87;;;14.90;;
3369;SDS011;42042;51.948;7.628;2023-09-12T04:52:02;20.63;;;15.10;;
3369;SDS011;42042;51.948;7.628;2023-09-12T04:54:30;18.00;;;15.67;;
3369;SDS011;42042;51.948;7.628;2023-09-12T04:56:57;19.90;;;15.17;;
3369;SDS011;42042;51.948;7.628;2023-09-12T04:59:24;18.53;;;14.97;;
3369;SDS011;42042;51.948;7.628;2023-09-12T05:01:52;21.40;;;15.80;;
3369;SDS011;42042;51.948;7.628;2023-09-12T05:04:19;18.53;;;15.57;;
3369;SDS011;42042;51.948;7.628;2023-09-12T05:06:46;18.53;;;16.23;;
3369;SDS011;42042;51.948;7.628;2023-09-12T05:09:14;21.23;;;17.60;;
3369;SDS011;42042;51.948;7.628;2023-09-12T05:11:42;17.80;;;15.90;;
3369;SDS011;42042;51.948;7.628;2023-09-12T05:14:10;18.73;;;16.67;;
3369;SDS011;42042;51.948;7.628;2023-09-12T05:16:37;22.87;;;17.40;;
3369;SDS011;42042;51.948;7.628;2023-09-12T05:19:04;17.70;;;15.80;;
3369;SDS011;42042;51.948;7.628;2023-09-12T05:21:31;25.70;;;17.70;;
3369;SDS011;42042;51.948;7.628;2023-09-12T05:23:59;22.30;;;17.37;;
3369;SDS011;42042;51.948;7.628;2023-09-12T05:26:26;20.83;;;18.30;;
3369;SDS011;42042;51.948;7.628;2023-09-12T05:28:54;21.43;;;18.30;;
3369;SDS011;42042;51.948;7.628;2023-09-12T05:31:21;21.43;;;18.90;;
3369;SDS011;42042;51.948;7.628;2023-09-12T05:33:49;23.33;;;18.10;;
3369;SDS011;42042;51.948;7.628;2023-09-12T05:36:16;26.20;;;19.03;;
3369;SDS011;42042;51.948;7.628;2023-09-12T05:38:43;24.80;;;19.20;;
3369;SDS011;42042;51.948;7.628;2023-09-12T05:41:10;27.17;;;20.37;;
3369;SDS011;42042;51.948;7.628;2023-09-12T05:43:37;24.40;;;19.53;;
3369;SDS011;42042;51.948;7.628;2023-09-12T05:46:06;25.07;;;20.87;;
3369;SDS011;42042;51.948;7.628;2023-09-12T05:48:33;22.87;;;19.40;;
3369;SDS011;42042;51.948;7.628;2023-09-12T05:51:00;29.73;;;20.13;;
3369;SDS011;42042;51.948;7.628;2023-09-12T05:53:28;24.50;;;19.77;;
3369;SDS011;42042;51.948;7.628;2023-09-12T05:55:56;26.20;;;19.93;;
3369;SDS011;42042;51.948;7.628;2023-09-12T05:58:23;22.40;;;18.93;;
3369;SDS011;42042;51.948;7.628;2023-09-12T06:00:50;26.73;;;19.63;;
3369;SDS011;42042;51.948;7.628;2023-09-12T06:03:19;32.07;;;19.67;;
3369;SDS011;42042;51.948;7.628;2023-09-12T06:05:46;21.37;;;18.37;;
3369;SDS011;42042;51.948;7.628;2023-09-12T06:08:13;22.87;;;18.17;;
3369;SDS011;42042;51.948;7.628;2023-09-12T06:10:40;23.50;;;18.07;;
3369;SDS011;42042;51.948;7.628;2023-09-12T06:13:08;22.53;;;18.60;;
3369;SDS011;42042;51.948;7.628;2023-09-12T06:15:35;27.30;;;21.83;;
3369;SDS011;42042;51.948;7.628;2023-09-12T06:18:02;22.80;;;19.67;;
3369;SDS011;42042;51.948;7.628;2023-09-12T06:20:31;24.90;;;19.20;;
3369;SDS011;42042;51.948;7.628;2023-09-12T06:22:58;25.20;;;19.50;;
3369;SDS011;42042;51.948;7.628;2023-09-12T06:25:25;25.70;;;19.10;;
3369;SDS011;42042;51.948;7.628;2023-09-12T06:27:54;24.80;;;19.60;;
3369;SDS011;42042;51.948;7.628;2023-09-12T06:30:21;33.47;;;21.90;;
3369;SDS011;42042;51.948;7.628;2023-09-12T06:32:48;25.07;;;19.77;;
3369;SDS011;42042;51.948;7.628;2023-09-12T06:35:15;29.60;;;20.70;;
3369;SDS011;42042;51.948;7.628;2023-09-12T06:37:44;34.83;;;23.50;;
3369;SDS011;42042;51.948;7.628;2023-09-12T06:40:12;37.00;;;24.43;;
3369;SDS011;42042;51.948;7.628;2023-09-12T06:42:39;38.13;;;24.53;;
3369;SDS011;42042;51.948;7.628;2023-09-12T06:45:07;35.80;;;26.67;;
3369;SDS011;42042;51.948;7.628;2023-09-12T06:47:34;40.87;;;26.57;;
3369;SDS011;42042;51.948;7.628;2023-09-12T06:50:01;44.83;;;27.73;;
3369;SDS011;42042;51.948;7.628;2023-09-12T06:52:28;43.63;;;26.90;;
3369;SDS011;42042;51.948;7.628;2023-09-12T06:54:57;44.93;;;27.20;;
3369;SDS011;42042;51.948;7.628;2023-09-12T06:57:24;41.37;;;27.17;;
3369;SDS011;42042;51.948;7.628;2023-09-12T06:59:51;36.80;;;26.50;;
3369;SDS011;42042;51.948;7.628;2023-09-12T07:02:19;38.43;;;25.47;;
3369;SDS011;42042;51.948;7.628;2023-09-12T07:04:46;37.00;;;24.83;;
3369;SDS011;42042;51.948;7.628;2023-09-12T07:07:14;37.83;;;25.60;;
3369;SDS011;42042;51.948;7.628;2023-09-12T07:09:41;37.43;;;26.17;;
3369;SDS011;42042;51.948;7.628;2023-09-12T07:12:09;38.13;;;28.30;;
3369;SDS011;42042;51.948;7.628;2023-09-12T07:14:36;37.90;;;26.77;;
3369;SDS011;42042;51.948;7.628;2023-09-12T07:17:05;34.80;;;23.93;;
3369;SDS011;42042;51.948;7.628;2023-09-12T07:19:32;30.37;;;23.63;;
3369;SDS011;42042;51.948;7.628;2023-09-12T07:22:00;28.80;;;23.90;;
3369;SDS011;42042;51.948;7.628;2023-09-12T07:24:27;32.83;;;25.23;;
3369;SDS011;42042;51.948;7.628;2023-09-12T07:26:54;36.47;;;26.43;;
3369;SDS011;42042;51.948;7.628;2023-09-12T07:29:24;37.57;;;27.20;;
3369;SDS011;42042;51.948;7.628;2023-09-12T07:31:52;37.90;;;28.27;;
3369;SDS011;42042;51.948;7.628;2023-09-12T07:34:20;43.77;;;30.23;;
3369;SDS011;42042;51.948;7.628;2023-09-12T07:36:48;47.70;;;30.63;;
3369;SDS011;42042;51.948;7.628;2023-09-12T07:39:16;42.83;;;30.50;;
3369;SDS011;42042;51.948;7.628;2023-09-12T07:41:43;43.10;;;28.60;;
3369;SDS011;42042;51.948;7.628;2023-09-12T07:44:10;47.50;;;29.57;;
3369;SDS011;42042;51.948;7.628;2023-09-12T07:46:41;43.57;;;30.77;;
3369;SDS011;42042;51.948;7.628;2023-09-12T07:49:09;44.03;;;29.13;;
3369;SDS011;42042;51.948;7.628;2023-09-12T07:51:36;40.83;;;28.27;;
3369;SDS011;42042;51.948;7.628;2023-09-12T07:54:03;38.57;;;29.37;;
3369;SDS011;42042;51.948;7.628;2023-09-12T07:56:30;42.93;;;29.13;;
3369;SDS011;42042;51.948;7.628;2023-09-12T07:58:58;37.67;;;28.60;;
3369;SDS011;42042;51.948;7.628;2023-09-12T08:01:25;55.40;;;31.10;;
3369;SDS011;42042;51.948;7.628;2023-09-12T08:03:54;41.53;;;28.47;;
3369;SDS011;42042;51.948;7.628;2023-09-12T08:06:22;46.87;;;29.93;;
3369;SDS011;42042;51.948;7.628;2023-09-12T08:08:50;44.47;;;29.87;;
3369;SDS011;42042;51.948;7.628;2023-09-12T08:11:17;42.93;;;28.00;;
3369;SDS011;42042;51.948;7.628;2023-09-12T08:13:45;77.00;;;51.77;;
3369;SDS011;42042;51.948;7.628;2023-09-12T08:16:13;43.50;;;30.47;;
3369;SDS011;42042;51.948;7.628;2023-09-12T08:18:40;44.43;;;30.10;;
3369;SDS011;42042;51.948;7.628;2023-09-12T08:21:09;45.50;;;30.40;;
3369;SDS011;42042;51.948;7.628;2023-09-12T08:23:36;48.77;;;30.23;;
3369;SDS011;42042;51.948;7.628;2023-09-12T08:26:03;47.60;;;29.80;;
3369;SDS011;42042;51.948;7.628;2023-09-12T08:28:31;46.00;;;28.47;;
3369;SDS011;42042;51.948;7.628;2023-09-12T08:30:58;38.30;;;25.90;;
3369;SDS011;42042;51.948;7.628;2023-09-12T08:33:25;45.90;;;30.60;;
3369;SDS011;42042;51.948;7.628;2023-09-12T08:35:52;37.97;;;27.67;;
3369;SDS011;42042;51.948;7.628;2023-09-12T08:38:21;43.50;;;27.70;;
3369;SDS011;42042;51.948;7.628;2023-09-12T08:40:48;43.97;;;28.73;;
3369;SDS011;42042;51.948;7.628;2023-09-12T08:43:16;36.20;;;25.23;;
3369;SDS011;42042;51.948;7.628;2023-09-12T08:45:43;41.80;;;27.30;;
3369;SDS011;42042;51.948;7.628;2023-09-12T08:48:11;38.40;;;25.60;;
3369;SDS011;42042;51.948;7.628;2023-09-12T08:50:38;42.10;;;28.57;;
3369;SDS011;42042;51.948;7.628;2023-09-12T08:53:06;46.57;;;27.97;;
3369;SDS011;42042;51.948;7.628;2023-09-12T08:55:34;40.27;;;26.17;;
3369;SDS011;42042;51.948;7.628;2023-09-12T08:58:02;38.40;;;25.93;;
3369;SDS011;42042;51.948;7.628;2023-09-12T09:00:29;37.33;;;26.90;;
3369;SDS011;42042;51.948;7.628;2023-09-12T09:02:57;37.80;;;26.80;;
3369;SDS011;42042;51.948;7.628;2023-09-12T09:05:25;29.70;;;23.57;;
3369;SDS011;42042;51.948;7.628;2023-09-12T09:07:54;39.77;;;27.00;;
3369;SDS011;42042;51.948;7.628;2023-09-12T09:10:22;41.37;;;27.10;;
3369;SDS011;42042;51.948;7.628;2023-09-12T09:12:51;38.90;;;27.50;;
3369;SDS011;42042;51.948;7.628;2023-09-12T09:15:21;35.20;;;26.33;;
3369;SDS011;42042;51.948;7.628;2023-09-12T09:17:49;40.07;;;28.07;;
3369;SDS011;42042;51.948;7.628;2023-09-12T09:20:21;34.73;;;27.70;;
3369;SDS011;42042;51.948;7.628;2023-09-12T09:22:55;34.20;;;26.43;;
3369;SDS011;42042;51.948;7.628;2023-09-12T09:25:22;40.23;;;27.50;;
3369;SDS011;42042;51.948;7.628;2023-09-12T09:27:51;33.27;;;25.77;;
3369;SDS011;42042;51.948;7.628;2023-09-12T09:30:18;42.63;;;32.37;;
3369;SDS011;42042;51.948;7.628;2023-09-12T09:32:46;43.37;;;30.23;;
3369;SDS011;42042;51.948;7.628;2023-09-12T09:35:14;50.20;;;31.13;;
3369;SDS011;42042;51.948;7.628;2023-09-12T09:37:41;36.37;;;29.50;;
3369;SDS011;42042;51.948;7.628;2023-09-12T09:40:08;34.43;;;27.73;;
3369;SDS011;42042;51.948;7.628;2023-09-12T09:42:36;34.40;;;28.77;;
3369;SDS011;42042;51.948;7.628;2023-09-12T09:45:05;29.93;;;26.33;;
3369;SDS011;42042;51.948;7.628;2023-09-12T09:47:33;32.03;;;24.47;;
3369;SDS011;42042;51.948;7.628;2023-09-12T09:50:00;28.07;;;24.63;;
3369;SDS011;42042;51.948;7.628;2023-09-12T09:52:27;27.83;;;22.43;;
3369;SDS011;42042;51.948;7.628;2023-09-12T09:54:54;27.53;;;21.57;;
3369;SDS011;42042;51.948;7.628;2023-09-12T09:57:22;26.93;;;22.00;;
3369;SDS011;42042;51.948;7.628;2023-09-12T09:59:52;28.93;;;25.87;;
3369;SDS011;42042;51.948;7.628;2023-09-12T10:02:22;23.47;;;21.07;;
3369;SDS011;42042;51.948;7.628;2023-09-12T10:04:51;24.37;;;20.40;;
3369;SDS011;42042;51.948;7.628;2023-09-12T10:07:20;20.37;;;18.37;;
3369;SDS011;42042;51.948;7.628;2023-09-12T10:09:48;20.63;;;18.43;;
3369;SDS011;42042;51.948;7.628;2023-09-12T10:12:15;22.40;;;19.50;;
3369;SDS011;42042;51.948;7.628;2023-09-12T10:14:43;22.70;;;20.23;;
3369;SDS011;42042;51.948;7.628;2023-09-12T10:17:10;21.67;;;19.47;;
3369;SDS011;42042;51.948;7.628;2023-09-12T10:19:42;26.17;;;20.63;;
3369;SDS011;42042;51.948;7.628;2023-09-12T10:22:18;22.83;;;20.43;;
3369;SDS011;42042;51.948;7.628;2023-09-12T10:24:47;23.33;;;21.13;;
3369;SDS011;42042;51.948;7.628;2023-09-12T10:27:15;23.23;;;20.93;;
3369;SDS011;42042;51.948;7.628;2023-09-12T10:29:43;22.80;;;20.50;;
3369;SDS011;42042;51.948;7.628;2023-09-12T10:32:12;23.03;;;20.73;;
3369;SDS011;42042;51.948;7.628;2023-09-12T10:34:42;23.17;;;20.97;;
3369;SDS011;42042;51.948;7.628;2023-09-12T10:37:12;21.07;;;18.60;;
3369;SDS011;42042;51.948;7.628;2023-09-12T10:39:42;20.97;;;19.00;;
3369;SDS011;42042;51.948;7.628;2023-09-12T10:42:09;22.77;;;18.73;;
3369;SDS011;42042;51.948;7.628;2023-09-12T10:44:38;18.17;;;16.43;;
3369;SDS011;42042;51.948;7.628;2023-09-12T10:47:05;16.37;;;14.80;;
3369;SDS011;42042;51.948;7.628;2023-09-12T10:49:33;17.80;;;16.00;;
3369;SDS011;42042;51.948;7.628;2023-09-12T10:52:01;20.53;;;18.53;;
3369;SDS011;42042;51.948;7.628;2023-09-12T10:54:35;15.57;;;14.13;;
3369;SDS011;42042;51.948;7.628;2023-09-12T10:57:03;14.03;;;12.60;;
3369;SDS011;42042;51.948;7.628;2023-09-12T10:59:30;13.23;;;11.87;;
3369;SDS011;42042;51.948;7.628;2023-09-12T11:04:42;13.40;;;12.10;;
3369;SDS011;42042;51.948;7.628;2023-09-12T11:12:38;10.10;;;9.10;;
3369;SDS011;42042;51.948;7.628;2023-09-12T11:15:06;10.67;;;9.70;;
3369;SDS011;42042;51.948;7.628;2023-09-12T11:17:37;11.53;;;9.70;;
3369;SDS011;42042;51.948;7.628;2023-09-12T11:20:04;10.23;;;9.37;;
3369;SDS011;42042;51.948;7.628;2023-09-12T11:22:36;10.10;;;9.20;;
3369;SDS011;42042;51.948;7.628;2023-09-12T11:25:04;11.07;;;9.97;;
3369;SDS011;42042;51.948;7.628;2023-09-12T11:27:33;11.83;;;10.63;;
3369;SDS011;42042;51.948;7.628;2023-09-12T11:30:12;11.97;;;10.77;;
3369;SDS011;42042;51.948;7.628;2023-09-12T11:32:40;18.30;;;12.13;;
3369;SDS011;42042;51.948;7.628;2023-09-12T11:35:10;13.37;;;11.83;;
3369;SDS011;42042;51.948;7.628;2023-09-12T11:37:38;12.07;;;10.00;;
3369;SDS011;42042;51.948;7.628;2023-09-12T11:40:15;10.03;;;9.10;;
3369;SDS011;42042;51.948;7.628;2023-09-12T11:42:43;9.43;;;8.50;;
3369;SDS011;42042;51.948;7.628;2023-09-12T11:45:14;12.73;;;10.13;;
3369;SDS011;42042;51.948;7.628;2023-09-12T11:47:41;10.57;;;9.70;;
3369;SDS011;42042;51.948;7.628;2023-09-12T11:50:08;10.63;;;9.80;;
3369;SDS011;42042;51.948;7.628;2023-09-12T11:52:36;10.67;;;9.70;;
3369;SDS011;42042;51.948;7.628;2023-09-12T11:55:03;9.50;;;8.70;;
3369;SDS011;42042;51.948;7.628;2023-09-12T11:57:31;9.90;;;8.90;;
3369;SDS011;42042;51.948;7.628;2023-09-12T11:59:59;11.33;;;10.20;;
3369;SDS011;42042;51.948;7.628;2023-09-12T12:02:34;11.70;;;10.50;;
3369;SDS011;42042;51.948;7.628;2023-09-12T12:05:02;11.50;;;9.70;;
3369;SDS011;42042;51.948;7.628;2023-09-12T12:07:29;10.63;;;9.63;;
3369;SDS011;42042;51.948;7.628;2023-09-12T12:09:57;11.30;;;9.47;;
3369;SDS011;42042;51.948;7.628;2023-09-12T12:12:24;10.53;;;9.30;;
3369;SDS011;42042;51.948;7.628;2023-09-12T12:14:51;14.80;;;9.47;;
3369;SDS011;42042;51.948;7.628;2023-09-12T12:17:18;11.87;;;9.57;;
3369;SDS011;42042;51.948;7.628;2023-09-12T12:19:47;11.60;;;9.10;;
3369;SDS011;42042;51.948;7.628;2023-09-12T12:22:14;9.23;;;8.33;;
3369;SDS011;42042;51.948;7.628;2023-09-12T12:24:45;9.87;;;8.30;;
3369;SDS011;42042;51.948;7.628;2023-09-12T12:27:14;10.13;;;9.23;;
3369;SDS011;42042;51.948;7.628;2023-09-12T12:29:41;9.20;;;8.40;;
3369;SDS011;42042;51.948;7.628;2023-09-12T12:32:09;10.20;;;9.10;;
3369;SDS011;42042;51.948;7.628;2023-09-12T12:34:37;10.37;;;9.47;;
3369;SDS011;42042;51.948;7.628;2023-09-12T12:37:05;10.40;;;9.40;;
3369;SDS011;42042;51.948;7.628;2023-09-12T12:39:32;10.93;;;9.67;;
3369;SDS011;42042;51.948;7.628;2023-09-12T12:42:00;10.20;;;9.20;;
3369;SDS011;42042;51.948;7.628;2023-09-12T12:44:34;10.20;;;9.27;;
3369;SDS011;42042;51.948;7.628;2023-09-12T12:47:06;10.63;;;9.63;;
3369;SDS011;42042;51.948;7.628;2023-09-12T12:49:36;10.97;;;10.00;;
3369;SDS011;42042;51.948;7.628;2023-09-12T12:52:04;9.83;;;8.93;;
3369;SDS011;42042;51.948;7.628;2023-09-12T12:54:32;10.90;;;9.70;;
3369;SDS011;42042;51.948;7.628;2023-09-12T12:57:00;12.00;;;10.90;;
3369;SDS011;42042;51.948;7.628;2023-09-12T12:59:27;11.37;;;10.23;;
3369;SDS011;42042;51.948;7.628;2023-09-12T13:01:59;12.73;;;10.80;;
3369;SDS011;42042;51.948;7.628;2023-09-12T13:04:27;12.90;;;11.60;;
3369;SDS011;42042;51.948;7.628;2023-09-12T13:06:55;11.40;;;10.40;;
3369;SDS011;42042;51.948;7.628;2023-09-12T13:09:22;10.90;;;9.90;;
3369;SDS011;42042;51.948;7.628;2023-09-12T13:11:50;10.10;;;9.20;;
3369;SDS011;42042;51.948;7.628;2023-09-12T13:14:18;11.57;;;9.70;;
3369;SDS011;42042;51.948;7.628;2023-09-12T13:16:45;17.00;;;15.27;;
3369;SDS011;42042;51.948;7.628;2023-09-12T13:19:12;9.80;;;8.60;;
3369;SDS011;42042;51.948;7.628;2023-09-12T13:21:39;9.10;;;8.20;;
3369;SDS011;42042;51.948;7.628;2023-09-12T13:24:07;9.50;;;8.60;;
3369;SDS011;42042;51.948;7.628;2023-09-12T13:26:34;10.93;;;9.93;;
3369;SDS011;42042;51.948;7.628;2023-09-12T13:29:03;9.73;;;8.73;;
3369;SDS011;42042;51.948;7.628;2023-09-12T13:31:30;9.50;;;8.60;;
3369;SDS011;42042;51.948;7.628;2023-09-12T13:33:58;8.30;;;7.50;;
3369;SDS011;42042;51.948;7.628;2023-09-12T13:36:25;8.73;;;7.90;;
3369;SDS011;42042;51.948;7.628;2023-09-12T13:38:52;8.40;;;7.60;;
3369;SDS011;42042;51.948;7.628;2023-09-12T13:41:19;9.83;;;8.53;;
3369;SDS011;42042;51.948;7.628;2023-09-12T13:43:47;7.77;;;7.00;;
3369;SDS011;42042;51.948;7.628;2023-09-12T13:46:15;7.80;;;7.10;;
3369;SDS011;42042;51.948;7.628;2023-09-12T13:48:43;7.70;;;7.10;;
3369;SDS011;42042;51.948;7.628;2023-09-12T13:51:10;8.63;;;7.93;;
3369;SDS011;42042;51.948;7.628;2023-09-12T13:53:38;8.67;;;7.90;;
3369;SDS011;42042;51.948;7.628;2023-09-12T13:56:05;8.80;;;8.00;;
3369;SDS011;42042;51.948;7.628;2023-09-12T13:58:33;7.60;;;6.90;;
3369;SDS011;42042;51.948;7.628;2023-09-12T14:01:00;9.80;;;7.60;;
3369;SDS011;42042;51.948;7.628;2023-09-12T14:03:29;7.53;;;6.87;;
3369;SDS011;42042;51.948;7.628;2023-09-12T14:05:57;7.97;;;7.27;;
3369;SDS011;42042;51.948;7.628;2023-09-12T14:08:24;9.70;;;6.40;;
3369;SDS011;42042;51.948;7.628;2023-09-12T14:10:51;7.00;;;6.40;;
3369;SDS011;42042;51.948;7.628;2023-09-12T14:13:18;14.43;;;12.10;;
3369;SDS011;42042;51.948;7.628;2023-09-12T14:15:45;7.17;;;6.07;;
3369;SDS011;42042;51.948;7.628;2023-09-12T14:18:14;7.53;;;6.67;;
3369;SDS011;42042;51.948;7.628;2023-09-12T14:20:43;7.77;;;6.70;;
3369;SDS011;42042;51.948;7.628;2023-09-12T14:23:11;7.50;;;6.90;;
3369;SDS011;42042;51.948;7.628;2023-09-12T14:25:38;6.83;;;6.23;;
3369;SDS011;42042;51.948;7.628;2023-09-12T14:28:06;7.07;;;6.40;;
3369;SDS011;42042;51.948;7.628;2023-09-12T14:30:33;13.37;;;12.00;;
3369;SDS011;42042;51.948;7.628;2023-09-12T14:33:01;8.90;;;8.00;;
3369;SDS011;42042;51.948;7.628;2023-09-12T14:35:28;7.13;;;6.53;;
3369;SDS011;42042;51.948;7.628;2023-09-12T14:37:57;7.73;;;7.13;;
3369;SDS011;42042;51.948;7.628;2023-09-12T14:40:24;8.67;;;7.77;;
3369;SDS011;42042;51.948;7.628;2023-09-12T14:42:52;8.47;;;7.77;;
3369;SDS011;42042;51.948;7.628;2023-09-12T14:45:19;9.33;;;7.57;;
3369;SDS011;42042;51.948;7.628;2023-09-12T14:47:46;12.00;;;7.27;;
3369;SDS011;42042;51.948;7.628;2023-09-12T14:50:14;8.90;;;7.60;;
3369;SDS011;42042;51.948;7.628;2023-09-12T14:52:41;8.67;;;7.30;;